createdAt,value
2022-08-26T00:01:56.789Z,16.45
2022-08-26T00:04:25.845Z,16.46
2022-08-26T00:06:54.991Z,16.45
2022-08-26T00:09:25.318Z,16.44
2022-08-26T00:11:54.390Z,16.43
2022-08-26T00:14:26.030Z,16.40
2022-08-26T00:16:57.396Z,16.39
2022-08-26T00:19:25.293Z,16.38
2022-08-26T00:21:52.997Z,16.39
2022-08-26T00:24:21.843Z,16.41
2022-08-26T00:26:51.576Z,16.41
2022-08-26T00:29:19.854Z,16.42
2022-08-26T00:31:49.205Z,16.44
2022-08-26T00:34:19.539Z,16.45
2022-08-26T00:36:49.350Z,16.47
2022-08-26T00:39:20.427Z,16.50
2022-08-26T00:41:48.520Z,16.52
2022-08-26T00:44:16.675Z,16.54
2022-08-26T00:46:49.157Z,16.53
2022-08-26T00:49:24.562Z,16.52
2022-08-26T00:51:58.967Z,16.53
2022-08-26T00:54:33.263Z,16.54
2022-08-26T00:57:16.004Z,16.56
2022-08-26T00:59:56.757Z,16.57
2022-08-26T01:02:25.459Z,16.53
2022-08-26T01:04:59.290Z,16.53
2022-08-26T01:07:30.070Z,16.54
2022-08-26T01:10:00.361Z,16.51
2022-08-26T01:12:32.136Z,16.49
2022-08-26T01:15:01.618Z,16.46
2022-08-26T01:17:29.253Z,16.45
2022-08-26T01:20:04.462Z,16.46
2022-08-26T01:23:01.637Z,16.46
2022-08-26T01:25:34.223Z,16.43
2022-08-26T01:28:06.425Z,16.41
2022-08-26T01:30:37.638Z,16.39
2022-08-26T01:33:10.784Z,16.37
2022-08-26T01:35:39.650Z,16.32
2022-08-26T01:38:07.640Z,16.34
2022-08-26T01:40:37.720Z,16.35
2022-08-26T01:43:08.556Z,16.37
2022-08-26T01:45:40.545Z,16.38
2022-08-26T01:48:13.990Z,16.40
2022-08-26T01:50:45.131Z,16.42
2022-08-26T01:53:17.159Z,16.43
2022-08-26T01:55:48.101Z,16.44
2022-08-26T01:58:39.151Z,16.42
2022-08-26T02:01:07.166Z,16.39
2022-08-26T02:03:50.980Z,16.34
2022-08-26T02:06:19.814Z,16.34
2022-08-26T02:08:52.697Z,16.35
2022-08-26T02:11:21.239Z,16.35
2022-08-26T02:14:02.952Z,16.36
2022-08-26T02:16:42.304Z,16.34
2022-08-26T02:19:29.456Z,16.35
2022-08-26T02:21:59.591Z,16.36
2022-08-26T02:24:45.878Z,16.38
2022-08-26T02:27:16.000Z,16.40
2022-08-26T02:29:51.397Z,16.40
2022-08-26T02:32:19.778Z,16.41
2022-08-26T02:34:47.277Z,16.42
2022-08-26T02:37:15.367Z,16.42
2022-08-26T02:39:45.556Z,16.39
2022-08-26T02:42:15.648Z,16.37
2022-08-26T02:44:43.107Z,16.39
2022-08-26T02:47:13.911Z,16.40
2022-08-26T02:49:47.458Z,16.41
2022-08-26T02:52:15.377Z,16.40
2022-08-26T02:54:43.341Z,16.36
2022-08-26T02:57:13.047Z,16.33
2022-08-26T02:59:41.082Z,16.33
2022-08-26T03:02:10.760Z,16.32
2022-08-26T03:04:39.267Z,16.31
2022-08-26T03:07:07.197Z,16.30
2022-08-26T03:09:34.839Z,16.29
2022-08-26T03:12:02.943Z,16.26
2022-08-26T03:14:30.493Z,16.25
2022-08-26T03:16:58.103Z,16.25
2022-08-26T03:19:26.431Z,16.28
2022-08-26T03:21:57.938Z,16.29
2022-08-26T03:24:26.964Z,16.31
2022-08-26T03:26:54.541Z,16.31
2022-08-26T03:29:41.568Z,16.28
2022-08-26T03:32:10.593Z,16.28
2022-08-26T03:34:38.646Z,16.27
2022-08-26T03:37:06.260Z,16.28
2022-08-26T03:39:34.116Z,16.28
2022-08-26T03:42:01.790Z,16.28
2022-08-26T03:44:29.885Z,16.21
2022-08-26T03:46:58.013Z,16.15
2022-08-26T03:49:26.323Z,16.07
2022-08-26T03:51:56.600Z,16.06
2022-08-26T03:54:24.381Z,16.04
2022-08-26T03:56:51.920Z,16.01
2022-08-26T03:59:19.638Z,15.98
2022-08-26T04:01:47.350Z,15.95
2022-08-26T04:04:17.155Z,15.95
2022-08-26T04:06:44.969Z,15.97
2022-08-26T04:09:20.790Z,15.95
2022-08-26T04:11:50.712Z,15.91
2022-08-26T04:14:23.802Z,15.86
2022-08-26T04:16:53.435Z,15.88
2022-08-26T04:19:24.411Z,15.91
2022-08-26T04:21:53.284Z,15.86
2022-08-26T04:24:23.674Z,15.85
2022-08-26T04:26:51.597Z,15.82
2022-08-26T04:29:24.176Z,15.79
2022-08-26T04:31:55.575Z,15.77
2022-08-26T04:34:28.963Z,15.77
2022-08-26T04:36:58.081Z,15.75
2022-08-26T04:39:27.663Z,15.72
2022-08-26T04:41:55.968Z,15.71
2022-08-26T04:44:28.491Z,15.70
2022-08-26T04:46:57.529Z,15.67
2022-08-26T04:49:26.158Z,15.67
2022-08-26T04:51:55.188Z,15.66
2022-08-26T04:54:23.469Z,15.67
2022-08-26T04:56:52.855Z,15.68
2022-08-26T04:59:20.389Z,15.68
2022-08-26T05:01:51.867Z,15.67
2022-08-26T05:04:20.594Z,15.63
2022-08-26T05:06:49.362Z,15.60
2022-08-26T05:09:18.721Z,15.59
2022-08-26T05:11:48.599Z,15.57
2022-08-26T05:14:23.433Z,15.54
2022-08-26T05:16:51.913Z,15.51
2022-08-26T05:19:19.806Z,15.49
2022-08-26T05:21:49.429Z,15.48
2022-08-26T05:24:17.902Z,15.44
2022-08-26T05:26:47.272Z,15.44
2022-08-26T05:29:16.777Z,15.43
2022-08-26T05:31:44.575Z,15.42
2022-08-26T05:34:12.833Z,15.40
2022-08-26T05:36:40.363Z,15.41
2022-08-26T05:39:10.355Z,15.42
2022-08-26T05:41:41.103Z,15.40
2022-08-26T05:44:12.791Z,15.41
2022-08-26T05:46:42.510Z,15.42
2022-08-26T05:49:13.754Z,15.44
2022-08-26T05:51:45.569Z,15.45
2022-08-26T05:54:14.194Z,15.45
2022-08-26T05:56:49.373Z,15.40
2022-08-26T05:59:21.245Z,15.39
2022-08-26T06:01:54.983Z,15.36
2022-08-26T06:04:27.684Z,15.35
2022-08-26T06:06:58.271Z,15.37
2022-08-26T06:09:26.985Z,15.38
2022-08-26T06:11:55.979Z,15.36
2022-08-26T06:14:23.600Z,15.39
2022-08-26T06:16:51.144Z,15.41
2022-08-26T06:19:19.328Z,15.45
2022-08-26T06:21:51.381Z,15.44
2022-08-26T06:24:40.816Z,15.47
2022-08-26T06:27:13.775Z,15.49
2022-08-26T06:29:41.937Z,15.50
2022-08-26T06:32:09.597Z,15.53
2022-08-26T06:34:37.359Z,15.50
2022-08-26T06:37:06.497Z,15.45
2022-08-26T06:39:34.693Z,15.43
2022-08-26T06:42:06.118Z,15.45
2022-08-26T06:44:34.846Z,15.49
2022-08-26T06:47:02.442Z,15.50
2022-08-26T06:49:30.159Z,15.51
2022-08-26T06:51:58.721Z,15.55
2022-08-26T06:54:32.032Z,15.58
2022-08-26T06:57:01.190Z,15.61
2022-08-26T06:59:28.697Z,15.68
2022-08-26T07:01:57.010Z,15.77
2022-08-26T07:04:25.083Z,15.83
2022-08-26T07:06:56.042Z,15.89
2022-08-26T07:09:27.312Z,15.94
2022-08-26T07:11:58.677Z,15.96
2022-08-26T07:14:26.545Z,15.96
2022-08-26T07:16:54.845Z,15.98
2022-08-26T07:19:29.860Z,16.01
2022-08-26T07:22:02.258Z,16.04
2022-08-26T07:24:36.421Z,16.07
2022-08-26T07:27:07.374Z,16.11
2022-08-26T07:29:38.037Z,16.16
2022-08-26T07:32:06.751Z,16.21
2022-08-26T07:34:34.467Z,16.20
2022-08-26T07:37:02.444Z,16.19
2022-08-26T07:39:31.641Z,16.17
2022-08-26T07:42:03.846Z,16.20
2022-08-26T07:44:37.169Z,16.29
2022-08-26T07:47:24.269Z,16.38
2022-08-26T07:49:55.863Z,16.42
2022-08-26T07:52:26.891Z,16.50
2022-08-26T07:55:00.123Z,16.60
2022-08-26T07:57:28.965Z,16.68
2022-08-26T07:59:57.097Z,16.71
2022-08-26T08:02:25.844Z,16.74
2022-08-26T08:04:54.677Z,16.77
2022-08-26T08:07:38.674Z,16.85
2022-08-26T08:10:13.904Z,16.86
2022-08-26T08:12:42.131Z,16.88
2022-08-26T08:15:13.838Z,16.90
2022-08-26T08:17:43.615Z,16.88
2022-08-26T08:20:12.291Z,16.84
2022-08-26T08:22:40.159Z,16.82
2022-08-26T08:25:10.667Z,16.80
2022-08-26T08:27:40.445Z,16.76
2022-08-26T08:30:09.444Z,16.74
2022-08-26T08:32:43.768Z,16.74
2022-08-26T08:35:14.239Z,16.76
2022-08-26T08:37:42.630Z,16.79
2022-08-26T08:40:15.798Z,16.81
2022-08-26T08:43:05.196Z,16.86
2022-08-26T08:45:37.210Z,16.97
2022-08-26T08:48:29.311Z,17.08
2022-08-26T08:51:22.207Z,17.16
2022-08-26T08:53:54.596Z,17.25
2022-08-26T08:56:39.635Z,17.33
2022-08-26T08:59:21.687Z,17.46
2022-08-26T09:01:54.096Z,17.53
2022-08-26T09:04:49.153Z,17.56
2022-08-26T09:07:36.847Z,17.48
2022-08-26T09:10:29.190Z,17.55
2022-08-26T09:12:57.889Z,17.62
2022-08-26T09:15:50.778Z,17.64
2022-08-26T09:18:27.401Z,17.70
2022-08-26T09:21:14.075Z,17.73
2022-08-26T09:23:44.116Z,17.72
2022-08-26T09:26:39.364Z,17.62
2022-08-26T09:31:49.393Z,17.67
2022-08-26T09:34:19.107Z,17.56
2022-08-26T09:36:54.218Z,17.44
2022-08-26T09:39:33.227Z,17.36
2022-08-26T09:42:19.412Z,17.28
2022-08-26T09:44:56.606Z,17.38
2022-08-26T09:47:30.344Z,17.43
2022-08-26T09:50:11.007Z,17.44
2022-08-26T09:52:42.601Z,17.46
2022-08-26T09:55:12.568Z,17.38
2022-08-26T09:57:54.121Z,17.41
2022-08-26T10:00:43.867Z,17.46
2022-08-26T10:03:23.717Z,17.43
2022-08-26T10:06:07.179Z,17.42
2022-08-26T10:08:39.401Z,17.45
2022-08-26T10:11:41.912Z,17.47
2022-08-26T10:14:29.748Z,17.42
2022-08-26T10:17:03.988Z,17.32
2022-08-26T10:19:56.814Z,17.24
2022-08-26T10:22:48.325Z,17.20
2022-08-26T10:25:23.485Z,17.12
2022-08-26T10:28:12.448Z,16.95
2022-08-26T10:30:47.038Z,16.90
2022-08-26T10:33:15.603Z,16.88
2022-08-26T10:36:28.558Z,16.83
2022-08-26T10:38:59.362Z,16.84
2022-08-26T10:41:35.144Z,16.92
2022-08-26T10:44:08.400Z,16.99
2022-08-26T10:46:53.526Z,17.01
2022-08-26T10:49:21.084Z,17.05
2022-08-26T10:52:12.291Z,17.09
2022-08-26T10:54:53.547Z,17.03
2022-08-26T10:57:46.723Z,17.01
2022-08-26T11:00:40.733Z,16.95
2022-08-26T11:03:41.481Z,16.89
2022-08-26T11:06:29.292Z,16.88
2022-08-26T11:09:08.806Z,16.85
2022-08-26T11:11:42.476Z,16.91
2022-08-26T11:14:23.458Z,16.94
2022-08-26T11:16:57.691Z,16.91
2022-08-26T11:20:00.707Z,16.90
2022-08-26T11:22:34.918Z,16.92
2022-08-26T11:25:14.458Z,16.95
2022-08-26T11:27:41.912Z,17.01
2022-08-26T11:30:35.299Z,17.12
2022-08-26T11:33:02.888Z,17.14
2022-08-26T11:35:37.414Z,17.13
2022-08-26T11:38:18.422Z,17.13
2022-08-26T11:41:05.035Z,17.09
2022-08-26T11:43:36.235Z,17.07
2022-08-26T11:46:07.218Z,17.10
2022-08-26T11:48:42.004Z,17.08
2022-08-26T11:51:22.687Z,17.05
2022-08-26T11:53:51.301Z,17.01
2022-08-26T11:56:32.697Z,17.01
2022-08-26T11:59:04.285Z,17.03
2022-08-26T12:01:56.402Z,17.05
2022-08-26T12:04:38.415Z,17.03
2022-08-26T12:07:09.809Z,17.03
2022-08-26T12:09:53.542Z,17.02
2022-08-26T12:12:35.199Z,17.09
2022-08-26T12:15:22.614Z,17.23
2022-08-26T12:17:54.449Z,17.33
2022-08-26T12:20:31.511Z,17.36
2022-08-26T12:23:01.646Z,17.41
2022-08-26T12:25:36.254Z,17.48
2022-08-26T12:28:06.494Z,17.55
2022-08-26T12:30:34.501Z,17.57
2022-08-26T12:33:22.833Z,17.53
2022-08-26T12:35:56.271Z,17.52
2022-08-26T12:38:27.862Z,17.55
2022-08-26T12:40:57.354Z,17.69
2022-08-26T12:43:48.616Z,17.85
2022-08-26T12:46:19.826Z,18.08
2022-08-26T12:48:50.023Z,18.38
2022-08-26T12:51:26.783Z,18.61
2022-08-26T12:53:55.280Z,18.83
2022-08-26T12:56:41.743Z,18.95
2022-08-26T12:59:27.869Z,18.97
2022-08-26T13:01:55.702Z,18.94
2022-08-26T13:04:40.483Z,18.89
2022-08-26T13:07:15.626Z,18.94
2022-08-26T13:09:47.214Z,19.02
2022-08-26T13:12:35.298Z,19.13
2022-08-26T13:15:07.485Z,19.13
2022-08-26T13:17:36.310Z,19.12
2022-08-26T13:20:04.904Z,19.13
2022-08-26T13:22:33.715Z,19.13
2022-08-26T13:25:07.036Z,19.10
2022-08-26T13:27:36.501Z,19.08
2022-08-26T13:30:06.933Z,19.05
2022-08-26T13:32:35.925Z,19.04
2022-08-26T13:35:06.057Z,19.00
2022-08-26T13:37:35.178Z,19.01
2022-08-26T13:40:11.871Z,19.04
2022-08-26T13:42:49.660Z,19.17
2022-08-26T13:45:22.902Z,19.35
2022-08-26T13:47:50.618Z,19.55
2022-08-26T13:50:18.281Z,19.78
2022-08-26T13:52:46.443Z,20.00
2022-08-26T13:55:14.093Z,20.25
2022-08-26T13:57:41.834Z,20.54
2022-08-26T14:00:10.984Z,20.82
2022-08-26T14:02:39.066Z,20.97
2022-08-26T14:05:07.275Z,21.12
2022-08-26T14:07:35.127Z,21.32
2022-08-26T14:10:04.609Z,21.56
2022-08-26T14:12:32.740Z,21.66
2022-08-26T14:15:00.617Z,21.80
2022-08-26T14:17:30.773Z,21.90
2022-08-26T14:19:58.893Z,21.85
2022-08-26T14:22:26.569Z,21.79
2022-08-26T14:24:54.465Z,21.70
2022-08-26T14:27:22.996Z,21.62
2022-08-26T14:29:50.734Z,21.49
2022-08-26T14:32:26.305Z,21.37
2022-08-26T14:34:55.899Z,21.27
2022-08-26T14:37:24.309Z,21.21
2022-08-26T14:39:52.600Z,21.10
2022-08-26T14:42:33.094Z,21.05
2022-08-26T14:45:05.378Z,21.03
2022-08-26T14:47:33.245Z,21.02
2022-08-26T14:50:01.329Z,21.04
2022-08-26T14:52:50.383Z,21.22
2022-08-26T14:55:18.298Z,21.37
2022-08-26T14:57:46.291Z,21.42
2022-08-26T15:00:14.253Z,21.47
2022-08-26T15:02:42.615Z,21.49
2022-08-26T15:05:11.196Z,21.49
2022-08-26T15:07:39.847Z,21.42
2022-08-26T15:10:11.535Z,21.28
2022-08-26T15:12:40.719Z,21.13
2022-08-26T15:15:10.802Z,21.14
2022-08-26T15:17:39.035Z,21.19
2022-08-26T15:20:09.781Z,21.20
2022-08-26T15:22:39.279Z,21.17
2022-08-26T15:25:09.132Z,21.10
2022-08-26T15:30:20.299Z,20.88
2022-08-26T15:32:48.102Z,20.83
2022-08-26T15:35:16.557Z,20.76
2022-08-26T15:37:44.508Z,20.68
2022-08-26T15:40:15.240Z,20.62
2022-08-26T15:42:43.175Z,20.52
2022-08-26T15:45:12.563Z,20.41
2022-08-26T15:48:11.148Z,20.30
2022-08-26T15:50:51.555Z,20.23
2022-08-26T15:53:22.128Z,20.20
2022-08-26T15:55:53.031Z,20.20
2022-08-26T15:58:21.724Z,20.17
2022-08-26T16:00:49.304Z,20.13
2022-08-26T16:03:17.102Z,20.13
2022-08-26T16:05:45.611Z,20.14
2022-08-26T16:08:14.388Z,20.15
2022-08-26T16:10:50.440Z,20.19
2022-08-26T16:13:20.034Z,20.20
2022-08-26T16:15:49.027Z,20.18
2022-08-26T16:18:17.021Z,20.16
2022-08-26T16:21:12.920Z,20.10
2022-08-26T16:23:38.533Z,20.04
2022-08-26T16:26:11.023Z,20.00
2022-08-26T16:28:39.110Z,19.90
2022-08-26T16:31:07.532Z,19.83
2022-08-26T16:33:35.113Z,19.72
2022-08-26T16:36:02.860Z,19.69
2022-08-26T16:38:30.633Z,19.61
2022-08-26T16:40:59.298Z,19.54
2022-08-26T16:43:27.506Z,19.46
2022-08-26T16:45:55.150Z,19.45
2022-08-26T16:48:23.696Z,19.44
2022-08-26T16:50:51.970Z,19.37
2022-08-26T16:53:19.545Z,19.29
2022-08-26T16:55:48.461Z,19.18
2022-08-26T16:58:17.051Z,19.11
2022-08-26T17:00:45.383Z,19.03
2022-08-26T17:03:13.158Z,18.88
2022-08-26T17:05:40.823Z,18.79
2022-08-26T17:08:08.736Z,18.71
2022-08-26T17:10:36.545Z,18.63
2022-08-26T17:13:04.291Z,18.51
2022-08-26T17:15:32.437Z,18.40
2022-08-26T17:18:00.505Z,18.32
2022-08-26T17:20:28.407Z,18.27
2022-08-26T17:22:56.379Z,18.19
2022-08-26T17:25:30.200Z,18.13
2022-08-26T17:27:58.528Z,18.08
2022-08-26T17:30:26.371Z,18.05
2022-08-26T17:32:54.856Z,18.04
2022-08-26T17:35:23.166Z,18.08
2022-08-26T17:37:51.293Z,18.11
2022-08-26T17:40:22.756Z,18.11
2022-08-26T17:42:50.780Z,18.13
2022-08-26T17:47:53.748Z,18.18
2022-08-26T17:50:21.566Z,18.15
2022-08-26T17:52:49.424Z,18.14
2022-08-26T17:55:18.236Z,18.14
2022-08-26T17:57:53.153Z,18.09
2022-08-26T18:00:23.633Z,18.07
2022-08-26T18:02:51.171Z,18.05
2022-08-26T18:05:19.107Z,18.02
2022-08-26T18:07:48.441Z,17.99
2022-08-26T18:10:18.787Z,17.95
2022-08-26T18:12:47.018Z,17.91
2022-08-26T18:15:16.640Z,17.90
2022-08-26T18:17:44.512Z,17.90
2022-08-26T18:20:16.927Z,17.87
2022-08-26T18:22:46.074Z,17.84
2022-08-26T18:25:15.243Z,17.78
2022-08-26T18:27:43.362Z,17.71
2022-08-26T18:30:16.738Z,17.62
2022-08-26T18:32:44.586Z,17.58
2022-08-26T18:35:12.507Z,17.53
2022-08-26T18:37:40.754Z,17.47
2022-08-26T18:40:10.992Z,17.45
2022-08-26T18:42:39.470Z,17.39
2022-08-26T18:45:08.669Z,17.35
2022-08-26T18:47:36.718Z,17.28
2022-08-26T18:50:05.820Z,17.20
2022-08-26T18:52:33.418Z,17.13
2022-08-26T18:55:02.300Z,17.05
2022-08-26T18:57:29.947Z,16.96
2022-08-26T18:59:57.761Z,16.90
2022-08-26T19:02:25.448Z,16.82
2022-08-26T19:04:53.273Z,16.78
2022-08-26T19:07:20.919Z,16.73
2022-08-26T19:09:48.479Z,16.69
2022-08-26T19:12:22.068Z,16.64
2022-08-26T19:14:49.676Z,16.58
2022-08-26T19:17:17.582Z,16.55
2022-08-26T19:19:50.317Z,16.51
2022-08-26T19:22:19.863Z,16.49
2022-08-26T19:24:47.463Z,16.47
2022-08-26T19:27:15.521Z,16.47
2022-08-26T19:29:43.102Z,16.45
2022-08-26T19:32:10.745Z,16.43
2022-08-26T19:34:38.365Z,16.39
2022-08-26T19:37:05.982Z,16.33
2022-08-26T19:39:33.576Z,16.31
2022-08-26T19:42:01.130Z,16.28
2022-08-26T19:44:47.167Z,16.28
2022-08-26T19:47:15.288Z,16.25
2022-08-26T19:49:42.891Z,16.23
2022-08-26T19:52:11.543Z,16.19
2022-08-26T19:54:39.796Z,16.17
2022-08-26T19:57:07.534Z,16.11
2022-08-26T19:59:36.319Z,16.08
2022-08-26T20:02:09.999Z,16.05
2022-08-26T20:04:39.030Z,16.03
2022-08-26T20:07:06.566Z,16.02
2022-08-26T20:09:35.232Z,16.01
2022-08-26T20:12:06.069Z,15.97
2022-08-26T20:14:35.191Z,15.96
2022-08-26T20:17:04.277Z,15.87
2022-08-26T20:19:50.478Z,15.81
2022-08-26T20:22:19.480Z,15.75
2022-08-26T20:24:47.550Z,15.67
2022-08-26T20:27:15.913Z,15.61
2022-08-26T20:29:43.544Z,15.54
2022-08-26T20:32:12.141Z,15.47
2022-08-26T20:34:40.120Z,15.40
2022-08-26T20:37:08.613Z,15.36
2022-08-26T20:39:36.417Z,15.32
2022-08-26T20:42:04.528Z,15.26
2022-08-26T20:44:33.604Z,15.19
2022-08-26T20:47:01.418Z,15.13
2022-08-26T20:49:30.446Z,15.07
2022-08-26T20:52:01.342Z,15.05
2022-08-26T20:54:30.069Z,15.04
2022-08-26T20:56:58.848Z,15.01
2022-08-26T20:59:27.178Z,14.95
2022-08-26T21:01:55.950Z,14.90
2022-08-26T21:04:26.181Z,14.81
2022-08-26T21:06:54.858Z,14.75
2022-08-26T21:09:24.747Z,14.73
2022-08-26T21:11:53.203Z,14.69
2022-08-26T21:14:25.747Z,14.62
2022-08-26T21:16:53.867Z,14.58
2022-08-26T21:19:21.835Z,14.55
2022-08-26T21:21:49.478Z,14.55
2022-08-26T21:24:17.822Z,14.50
2022-08-26T21:26:45.880Z,14.52
2022-08-26T21:29:13.867Z,14.55
2022-08-26T21:31:46.072Z,14.56
2022-08-26T21:34:16.926Z,14.56
2022-08-26T21:36:48.968Z,14.55
2022-08-26T21:39:17.106Z,14.53
2022-08-26T21:41:45.753Z,14.55
2022-08-26T21:44:15.596Z,14.60
2022-08-26T21:46:44.755Z,14.64
2022-08-26T21:49:15.884Z,14.71
2022-08-26T21:51:46.274Z,14.75
2022-08-26T21:54:15.064Z,14.79
2022-08-26T21:56:46.240Z,14.81
2022-08-26T21:59:16.980Z,14.79
2022-08-26T22:01:44.732Z,14.72
2022-08-26T22:04:12.333Z,14.67
2022-08-26T22:06:49.046Z,14.60
2022-08-26T22:09:28.031Z,14.53
2022-08-26T22:11:57.372Z,14.47
2022-08-26T22:14:30.358Z,14.40
2022-08-26T22:16:59.648Z,14.34
2022-08-26T22:19:27.360Z,14.25
2022-08-26T22:21:56.112Z,14.18
2022-08-26T22:24:26.060Z,14.11
2022-08-26T22:26:54.781Z,14.05
2022-08-26T22:29:22.535Z,14.03
2022-08-26T22:31:50.409Z,14.03
2022-08-26T22:34:19.626Z,14.02
2022-08-26T22:36:48.947Z,13.98
2022-08-26T22:39:21.067Z,13.95
2022-08-26T22:41:49.146Z,13.93
2022-08-26T22:44:18.514Z,13.92
2022-08-26T22:46:47.334Z,13.89
2022-08-26T22:49:19.714Z,13.87
2022-08-26T22:51:47.446Z,13.86
2022-08-26T22:54:15.747Z,13.84
2022-08-26T22:56:45.107Z,13.84
2022-08-26T22:59:13.258Z,13.82
2022-08-26T23:01:43.587Z,13.80
2022-08-26T23:04:11.806Z,13.75
2022-08-26T23:06:43.350Z,13.73
2022-08-26T23:09:18.414Z,13.70
2022-08-26T23:11:47.885Z,13.68
2022-08-26T23:14:17.078Z,13.65
2022-08-26T23:16:44.952Z,13.62
2022-08-26T23:19:14.722Z,13.59
2022-08-26T23:21:42.439Z,13.55
2022-08-26T23:24:11.296Z,13.53
2022-08-26T23:26:40.187Z,13.48
2022-08-26T23:29:09.903Z,13.42
2022-08-26T23:31:40.154Z,13.37
2022-08-26T23:34:26.814Z,13.29
2022-08-26T23:36:58.438Z,13.20
2022-08-26T23:39:26.693Z,13.10
2022-08-26T23:41:54.314Z,13.06
2022-08-26T23:44:22.499Z,13.02
2022-08-26T23:46:50.430Z,13.01
2022-08-26T23:49:18.080Z,13.04
2022-08-26T23:52:04.488Z,13.08
2022-08-26T23:54:33.097Z,13.10
2022-08-26T23:57:00.729Z,13.10
2022-08-26T23:59:28.434Z,13.09
